sensor_id;sensor_type;location;lat;lon;timestamp;pressure;altitude;pressure_sealevel;temperature;humidity
11314;BME280;5712;48.858;9.206;2022-09-13T00:02:08;97769.25;;;14.52;100.00
11314;BME280;5712;48.858;9.206;2022-09-13T00:04:36;97763.94;;;14.52;100.00
11314;BME280;5712;48.858;9.206;2022-09-13T00:07:03;97766.03;;;14.48;100.00
11314;BME280;5712;48.858;9.206;2022-09-13T00:09:30;97769.81;;;14.46;100.00
11314;BME280;5712;48.858;9.206;2022-09-13T00:11:56;97772.63;;;14.44;100.00
11314;BME280;5712;48.858;9.206;2022-09-13T00:14:23;97769.69;;;14.47;100.00
11314;BME280;5712;48.858;9.206;2022-09-13T00:16:50;97772.88;;;14.51;100.00
11314;BME280;5712;48.858;9.206;2022-09-13T00:19:17;97766.75;;;14.50;100.00
11314;BME280;5712;48.858;9.206;2022-09-13T00:21:45;97756.94;;;14.51;100.00
11314;BME280;5712;48.858;9.206;2022-09-13T00:24:12;97756.81;;;14.52;100.00
11314;BME280;5712;48.858;9.206;2022-09-13T00:26:39;97756.13;;;14.50;100.00
11314;BME280;5712;48.858;9.206;2022-09-13T00:29:06;97758.91;;;14.49;100.00
11314;BME280;5712;48.858;9.206;2022-09-13T00:31:32;97755.25;;;14.50;100.00
11314;BME280;5712;48.858;9.206;2022-09-13T00:33:59;97751.91;;;14.48;100.00
11314;BME280;5712;48.858;9.206;2022-09-13T00:36:26;97753.84;;;14.46;100.00
11314;BME280;5712;48.858;9.206;2022-09-13T00:38:54;97752.47;;;14.42;100.00
11314;BME280;5712;48.858;9.206;2022-09-13T00:41:22;97753.72;;;14.38;100.00
11314;BME280;5712;48.858;9.206;2022-09-13T00:43:50;97761.13;;;14.34;100.00
11314;BME280;5712;48.858;9.206;2022-09-13T00:46:22;97754.25;;;14.32;100.00
11314;BME280;5712;48.858;9.206;2022-09-13T00:48:55;97751.91;;;14.29;100.00
11314;BME280;5712;48.858;9.206;2022-09-13T00:51:24;97750.47;;;14.25;100.00
11314;BME280;5712;48.858;9.206;2022-09-13T00:53:54;97746.16;;;14.24;100.00
11314;BME280;5712;48.858;9.206;2022-09-13T00:56:27;97743.50;;;14.24;100.00
11314;BME280;5712;48.858;9.206;2022-09-13T00:58:58;97736.50;;;14.23;100.00
11314;BME280;5712;48.858;9.206;2022-09-13T01:01:30;97732.84;;;14.24;100.00
11314;BME280;5712;48.858;9.206;2022-09-13T01:04:00;97736.22;;;14.26;100.00
11314;BME280;5712;48.858;9.206;2022-09-13T01:06:30;97725.53;;;14.16;100.00
11314;BME280;5712;48.858;9.206;2022-09-13T01:08:59;97722.03;;;14.16;100.00
11314;BME280;5712;48.858;9.206;2022-09-13T01:11:34;97715.75;;;14.17;100.00
11314;BME280;5712;48.858;9.206;2022-09-13T01:14:05;97714.47;;;14.11;100.00
11314;BME280;5712;48.858;9.206;2022-09-13T01:16:33;97717.81;;;14.04;100.00
11314;BME280;5712;48.858;9.206;2022-09-13T01:19:00;97721.31;;;14.04;100.00
11314;BME280;5712;48.858;9.206;2022-09-13T01:25:02;97723.53;;;13.90;100.00
11314;BME280;5712;48.858;9.206;2022-09-13T01:27:53;97719.19;;;13.89;100.00
11314;BME280;5712;48.858;9.206;2022-09-13T01:30:32;97728.13;;;13.88;100.00
11314;BME280;5712;48.858;9.206;2022-09-13T01:33:39;97731.50;;;13.90;100.00
11314;BME280;5712;48.858;9.206;2022-09-13T01:36:31;97722.69;;;13.89;100.00
11314;BME280;5712;48.858;9.206;2022-09-13T01:39:02;97722.81;;;13.88;100.00
11314;BME280;5712;48.858;9.206;2022-09-13T01:41:54;97722.94;;;13.86;100.00
11314;BME280;5712;48.858;9.206;2022-09-13T01:44:32;97727.69;;;13.83;100.00
11314;BME280;5712;48.858;9.206;2022-09-13T01:47:18;97718.19;;;13.80;100.00
11314;BME280;5712;48.858;9.206;2022-09-13T01:49:59;97719.44;;;13.86;100.00
11314;BME280;5712;48.858;9.206;2022-09-13T01:52:35;97718.75;;;13.84;100.00
11314;BME280;5712;48.858;9.206;2022-09-13T01:55:07;97719.28;;;13.78;100.00
11314;BME280;5712;48.858;9.206;2022-09-13T01:57:40;97726.56;;;13.76;100.00
11314;BME280;5712;48.858;9.206;2022-09-13T02:00:12;97721.25;;;13.76;100.00
11314;BME280;5712;48.858;9.206;2022-09-13T02:02:44;97729.63;;;13.71;100.00
11314;BME280;5712;48.858;9.206;2022-09-13T02:05:18;97727.91;;;13.61;100.00
11314;BME280;5712;48.858;9.206;2022-09-13T02:07:54;97735.69;;;13.53;100.00
11314;BME280;5712;48.858;9.206;2022-09-13T02:10:25;97724.91;;;13.45;100.00
11314;BME280;5712;48.858;9.206;2022-09-13T02:12:55;97727.25;;;13.38;100.00
11314;BME280;5712;48.858;9.206;2022-09-13T02:15:25;97727.66;;;13.34;100.00
11314;BME280;5712;48.858;9.206;2022-09-13T02:18:00;97719.38;;;13.27;100.00
11314;BME280;5712;48.858;9.206;2022-09-13T02:20:32;97729.41;;;13.24;100.00
11314;BME280;5712;48.858;9.206;2022-09-13T02:23:07;97733.16;;;13.21;100.00
11314;BME280;5712;48.858;9.206;2022-09-13T02:25:37;97728.25;;;13.17;100.00
11314;BME280;5712;48.858;9.206;2022-09-13T02:28:07;97736.91;;;13.19;100.00
11314;BME280;5712;48.858;9.206;2022-09-13T02:30:38;97729.69;;;13.21;100.00
11314;BME280;5712;48.858;9.206;2022-09-13T02:33:11;97728.00;;;13.20;100.00
11314;BME280;5712;48.858;9.206;2022-09-13T02:35:43;97719.06;;;13.21;100.00
11314;BME280;5712;48.858;9.206;2022-09-13T02:38:15;97721.00;;;13.19;100.00
11314;BME280;5712;48.858;9.206;2022-09-13T02:40:48;97725.50;;;13.18;100.00
11314;BME280;5712;48.858;9.206;2022-09-13T02:43:21;97728.00;;;13.20;100.00
11314;BME280;5712;48.858;9.206;2022-09-13T02:45:53;97728.72;;;13.22;100.00
11314;BME280;5712;48.858;9.206;2022-09-13T02:48:31;97728.84;;;13.20;100.00
11314;BME280;5712;48.858;9.206;2022-09-13T02:51:05;97729.25;;;13.16;100.00
11314;BME280;5712;48.858;9.206;2022-09-13T02:53:37;97722.13;;;13.16;100.00
11314;BME280;5712;48.858;9.206;2022-09-13T02:56:16;97720.59;;;13.14;100.00
11314;BME280;5712;48.858;9.206;2022-09-13T02:58:50;97720.00;;;13.10;100.00
11314;BME280;5712;48.858;9.206;2022-09-13T03:01:20;97721.22;;;13.06;100.00
11314;BME280;5712;48.858;9.206;2022-09-13T03:03:50;97725.97;;;13.03;100.00
11314;BME280;5712;48.858;9.206;2022-09-13T03:06:22;97727.63;;;13.04;100.00
11314;BME280;5712;48.858;9.206;2022-09-13T03:08:48;97732.94;;;13.04;100.00
11314;BME280;5712;48.858;9.206;2022-09-13T03:11:22;97718.44;;;13.08;100.00
11314;BME280;5712;48.858;9.206;2022-09-13T03:14:07;97717.03;;;13.04;100.00
11314;BME280;5712;48.858;9.206;2022-09-13T03:16:47;97713.41;;;13.05;100.00
11314;BME280;5712;48.858;9.206;2022-09-13T03:19:36;97698.34;;;13.05;100.00
11314;BME280;5712;48.858;9.206;2022-09-13T03:22:18;97703.63;;;13.05;100.00
11314;BME280;5712;48.858;9.206;2022-09-13T03:24:54;97696.66;;;13.04;100.00
11314;BME280;5712;48.858;9.206;2022-09-13T03:27:31;97702.22;;;13.01;100.00
11314;BME280;5712;48.858;9.206;2022-09-13T03:30:03;97687.66;;;12.96;100.00
11314;BME280;5712;48.858;9.206;2022-09-13T03:32:35;97686.22;;;12.92;100.00
11314;BME280;5712;48.858;9.206;2022-09-13T03:35:14;97702.63;;;12.86;100.00
11314;BME280;5712;48.858;9.206;2022-09-13T03:37:54;97696.25;;;12.88;100.00
11314;BME280;5712;48.858;9.206;2022-09-13T03:40:32;97712.16;;;12.88;100.00
11314;BME280;5712;48.858;9.206;2022-09-13T03:43:03;97728.66;;;12.92;100.00
11314;BME280;5712;48.858;9.206;2022-09-13T03:45:38;97727.66;;;12.93;100.00
11314;BME280;5712;48.858;9.206;2022-09-13T03:48:06;97726.69;;;12.94;100.00
11314;BME280;5712;48.858;9.206;2022-09-13T03:50:35;97715.66;;;12.89;100.00
11314;BME280;5712;48.858;9.206;2022-09-13T03:53:06;97707.94;;;12.86;100.00
11314;BME280;5712;48.858;9.206;2022-09-13T03:55:38;97696.19;;;12.79;100.00
11314;BME280;5712;48.858;9.206;2022-09-13T03:58:09;97702.97;;;12.72;100.00
11314;BME280;5712;48.858;9.206;2022-09-13T04:00:35;97699.59;;;12.70;100.00
11314;BME280;5712;48.858;9.206;2022-09-13T04:03:02;97694.75;;;12.75;100.00
11314;BME280;5712;48.858;9.206;2022-09-13T04:05:29;97691.84;;;12.78;100.00
11314;BME280;5712;48.858;9.206;2022-09-13T04:07:57;97696.44;;;12.76;100.00
11314;BME280;5712;48.858;9.206;2022-09-13T04:10:24;97693.66;;;12.77;100.00
11314;BME280;5712;48.858;9.206;2022-09-13T04:12:50;97687.78;;;12.74;100.00
11314;BME280;5712;48.858;9.206;2022-09-13T04:15:19;97683.00;;;12.68;100.00
11314;BME280;5712;48.858;9.206;2022-09-13T04:17:46;97682.69;;;12.61;100.00
11314;BME280;5712;48.858;9.206;2022-09-13T04:20:13;97679.41;;;12.58;100.00
11314;BME280;5712;48.858;9.206;2022-09-13T04:22:39;97685.97;;;12.54;100.00
11314;BME280;5712;48.858;9.206;2022-09-13T04:25:08;97685.38;;;12.50;100.00
11314;BME280;5712;48.858;9.206;2022-09-13T04:27:35;97681.41;;;12.45;100.00
11314;BME280;5712;48.858;9.206;2022-09-13T04:30:02;97690.34;;;12.44;100.00
11314;BME280;5712;48.858;9.206;2022-09-13T04:32:28;97703.56;;;12.55;100.00
11314;BME280;5712;48.858;9.206;2022-09-13T04:34:56;97702.53;;;12.67;100.00
11314;BME280;5712;48.858;9.206;2022-09-13T04:37:23;97714.75;;;12.79;100.00
11314;BME280;5712;48.858;9.206;2022-09-13T04:39:50;97721.38;;;12.94;100.00
11314;BME280;5712;48.858;9.206;2022-09-13T04:42:19;97719.56;;;13.05;100.00
11314;BME280;5712;48.858;9.206;2022-09-13T04:44:45;97726.59;;;13.16;100.00
11314;BME280;5712;48.858;9.206;2022-09-13T04:47:14;97722.31;;;13.24;100.00
11314;BME280;5712;48.858;9.206;2022-09-13T04:49:41;97721.66;;;13.32;100.00
11314;BME280;5712;48.858;9.206;2022-09-13T04:52:08;97714.84;;;13.39;100.00
11314;BME280;5712;48.858;9.206;2022-09-13T04:54:34;97729.25;;;13.46;100.00
11314;BME280;5712;48.858;9.206;2022-09-13T04:57:02;97721.72;;;13.51;100.00
11314;BME280;5712;48.858;9.206;2022-09-13T04:59:30;97725.78;;;13.55;100.00
11314;BME280;5712;48.858;9.206;2022-09-13T05:01:57;97736.84;;;13.60;100.00
11314;BME280;5712;48.858;9.206;2022-09-13T05:04:24;97743.56;;;13.64;100.00
11314;BME280;5712;48.858;9.206;2022-09-13T05:06:50;97749.19;;;13.70;100.00
11314;BME280;5712;48.858;9.206;2022-09-13T05:09:17;97744.75;;;13.80;100.00
11314;BME280;5712;48.858;9.206;2022-09-13T05:11:44;97745.44;;;13.82;100.00
11314;BME280;5712;48.858;9.206;2022-09-13T05:14:11;97743.63;;;13.83;100.00
11314;BME280;5712;48.858;9.206;2022-09-13T05:16:39;97733.56;;;13.77;100.00
11314;BME280;5712;48.858;9.206;2022-09-13T05:19:06;97739.16;;;13.74;100.00
11314;BME280;5712;48.858;9.206;2022-09-13T05:21:32;97749.50;;;13.77;100.00
11314;BME280;5712;48.858;9.206;2022-09-13T05:23:59;97752.84;;;13.79;100.00
11314;BME280;5712;48.858;9.206;2022-09-13T05:26:27;97761.53;;;13.81;100.00
11314;BME280;5712;48.858;9.206;2022-09-13T05:28:55;97757.03;;;13.81;100.00
11314;BME280;5712;48.858;9.206;2022-09-13T05:31:23;97748.81;;;13.84;100.00
11314;BME280;5712;48.858;9.206;2022-09-13T05:33:54;97749.53;;;13.86;100.00
11314;BME280;5712;48.858;9.206;2022-09-13T05:36:21;97755.97;;;13.93;100.00
11314;BME280;5712;48.858;9.206;2022-09-13T05:38:48;97760.03;;;13.97;100.00
11314;BME280;5712;48.858;9.206;2022-09-13T05:41:14;97758.06;;;13.99;100.00
11314;BME280;5712;48.858;9.206;2022-09-13T05:43:41;97776.13;;;14.05;100.00
11314;BME280;5712;48.858;9.206;2022-09-13T05:46:11;97768.88;;;14.07;100.00
11314;BME280;5712;48.858;9.206;2022-09-13T05:48:38;97764.16;;;14.11;100.00
11314;BME280;5712;48.858;9.206;2022-09-13T05:51:08;97761.50;;;14.11;100.00
11314;BME280;5712;48.858;9.206;2022-09-13T05:53:36;97763.59;;;14.17;100.00
11314;BME280;5712;48.858;9.206;2022-09-13T05:56:04;97757.16;;;14.19;100.00
11314;BME280;5712;48.858;9.206;2022-09-13T05:58:31;97758.59;;;14.23;100.00
11314;BME280;5712;48.858;9.206;2022-09-13T06:00:58;97752.72;;;14.29;100.00
11314;BME280;5712;48.858;9.206;2022-09-13T06:03:24;97747.16;;;14.42;100.00
11314;BME280;5712;48.858;9.206;2022-09-13T06:05:53;97762.69;;;14.56;100.00
11314;BME280;5712;48.858;9.206;2022-09-13T06:08:22;97764.91;;;14.70;100.00
11314;BME280;5712;48.858;9.206;2022-09-13T06:10:55;97776.28;;;14.81;100.00
11314;BME280;5712;48.858;9.206;2022-09-13T06:13:23;97775.97;;;14.94;100.00
11314;BME280;5712;48.858;9.206;2022-09-13T06:15:50;97775.97;;;15.03;100.00
11314;BME280;5712;48.858;9.206;2022-09-13T06:18:17;97784.09;;;15.11;100.00
11314;BME280;5712;48.858;9.206;2022-09-13T06:20:44;97779.03;;;15.18;100.00
11314;BME280;5712;48.858;9.206;2022-09-13T06:23:11;97779.72;;;15.20;100.00
11314;BME280;5712;48.858;9.206;2022-09-13T06:25:40;97785.03;;;15.20;100.00
11314;BME280;5712;48.858;9.206;2022-09-13T06:28:07;97775.38;;;15.19;100.00
11314;BME280;5712;48.858;9.206;2022-09-13T06:30:35;97777.63;;;15.14;100.00
11314;BME280;5712;48.858;9.206;2022-09-13T06:33:01;97774.28;;;15.12;100.00
11314;BME280;5712;48.858;9.206;2022-09-13T06:35:28;97775.25;;;15.11;100.00
11314;BME280;5712;48.858;9.206;2022-09-13T06:37:56;97774.00;;;15.05;100.00
11314;BME280;5712;48.858;9.206;2022-09-13T06:40:23;97781.16;;;15.05;100.00
11314;BME280;5712;48.858;9.206;2022-09-13T06:42:51;97768.53;;;15.07;100.00
11314;BME280;5712;48.858;9.206;2022-09-13T06:45:17;97765.28;;;15.13;100.00
11314;BME280;5712;48.858;9.206;2022-09-13T06:47:44;97764.44;;;15.22;100.00
11314;BME280;5712;48.858;9.206;2022-09-13T06:50:11;97766.00;;;15.34;100.00
11314;BME280;5712;48.858;9.206;2022-09-13T06:52:38;97760.50;;;15.45;100.00
11314;BME280;5712;48.858;9.206;2022-09-13T06:55:05;97769.00;;;15.58;100.00
11314;BME280;5712;48.858;9.206;2022-09-13T06:57:32;97767.53;;;15.73;100.00
11314;BME280;5712;48.858;9.206;2022-09-13T07:00:00;97758.22;;;15.86;100.00
11314;BME280;5712;48.858;9.206;2022-09-13T07:02:26;97745.94;;;16.02;100.00
11314;BME280;5712;48.858;9.206;2022-09-13T07:04:53;97753.13;;;16.19;100.00
11314;BME280;5712;48.858;9.206;2022-09-13T07:07:20;97754.72;;;16.39;100.00
11314;BME280;5712;48.858;9.206;2022-09-13T07:09:46;97742.47;;;16.64;100.00
11314;BME280;5712;48.858;9.206;2022-09-13T07:12:13;97746.31;;;16.87;99.45
11314;BME280;5712;48.858;9.206;2022-09-13T07:14:39;97755.00;;;17.06;98.00
11314;BME280;5712;48.858;9.206;2022-09-13T07:17:07;97754.44;;;17.20;96.87
11314;BME280;5712;48.858;9.206;2022-09-13T07:19:34;97764.34;;;17.28;94.95
11314;BME280;5712;48.858;9.206;2022-09-13T07:22:01;97748.25;;;17.37;93.79
11314;BME280;5712;48.858;9.206;2022-09-13T07:24:29;97742.28;;;17.43;93.69
11314;BME280;5712;48.858;9.206;2022-09-13T07:26:56;97741.63;;;17.49;93.69
11314;BME280;5712;48.858;9.206;2022-09-13T07:29:23;97741.00;;;17.55;93.29
11314;BME280;5712;48.858;9.206;2022-09-13T07:31:51;97733.03;;;17.63;91.72
11314;BME280;5712;48.858;9.206;2022-09-13T07:34:22;97728.75;;;17.70;90.80
11314;BME280;5712;48.858;9.206;2022-09-13T07:36:49;97736.16;;;17.84;90.36
11314;BME280;5712;48.858;9.206;2022-09-13T07:39:17;97741.91;;;18.05;89.12
11314;BME280;5712;48.858;9.206;2022-09-13T07:41:44;97748.72;;;18.33;88.09
11314;BME280;5712;48.858;9.206;2022-09-13T07:44:11;97752.81;;;18.61;86.74
11314;BME280;5712;48.858;9.206;2022-09-13T07:46:41;97749.81;;;18.88;84.61
11314;BME280;5712;48.858;9.206;2022-09-13T07:49:09;97757.19;;;19.18;82.50
11314;BME280;5712;48.858;9.206;2022-09-13T07:51:39;97755.66;;;19.48;80.62
11314;BME280;5712;48.858;9.206;2022-09-13T07:54:10;97763.34;;;19.75;76.86
11314;BME280;5712;48.858;9.206;2022-09-13T07:56:38;97753.88;;;19.95;77.32
11314;BME280;5712;48.858;9.206;2022-09-13T07:59:07;97750.00;;;20.13;75.33
11314;BME280;5712;48.858;9.206;2022-09-13T08:01:38;97742.16;;;20.34;74.99
11314;BME280;5712;48.858;9.206;2022-09-13T08:04:06;97737.19;;;20.54;74.09
11314;BME280;5712;48.858;9.206;2022-09-13T08:06:36;97737.53;;;20.73;73.40
11314;BME280;5712;48.858;9.206;2022-09-13T08:09:06;97738.50;;;20.88;72.81
11314;BME280;5712;48.858;9.206;2022-09-13T08:11:34;97735.00;;;21.02;72.03
11314;BME280;5712;48.858;9.206;2022-09-13T08:14:02;97736.25;;;21.14;71.59
11314;BME280;5712;48.858;9.206;2022-09-13T08:16:29;97739.53;;;21.24;70.55
11314;BME280;5712;48.858;9.206;2022-09-13T08:18:57;97722.97;;;21.35;69.67
11314;BME280;5712;48.858;9.206;2022-09-13T08:21:25;97722.50;;;21.46;69.35
11314;BME280;5712;48.858;9.206;2022-09-13T08:23:54;97716.69;;;21.57;68.88
11314;BME280;5712;48.858;9.206;2022-09-13T08:26:25;97721.31;;;21.63;67.80
11314;BME280;5712;48.858;9.206;2022-09-13T08:28:55;97719.88;;;21.75;67.84
11314;BME280;5712;48.858;9.206;2022-09-13T08:31:21;97736.38;;;21.87;67.52
11314;BME280;5712;48.858;9.206;2022-09-13T08:33:48;97727.19;;;21.96;66.74
11314;BME280;5712;48.858;9.206;2022-09-13T08:36:15;97731.56;;;22.11;65.94
11314;BME280;5712;48.858;9.206;2022-09-13T08:38:45;97729.66;;;22.26;64.50
11314;BME280;5712;48.858;9.206;2022-09-13T08:41:31;97731.88;;;22.37;64.48
11314;BME280;5712;48.858;9.206;2022-09-13T08:44:04;97726.31;;;22.53;64.90
11314;BME280;5712;48.858;9.206;2022-09-13T08:46:36;97726.44;;;22.66;64.40
11314;BME280;5712;48.858;9.206;2022-09-13T08:49:10;97729.72;;;22.83;63.95
11314;BME280;5712;48.858;9.206;2022-09-13T08:51:41;97732.66;;;23.09;62.14
11314;BME280;5712;48.858;9.206;2022-09-13T08:54:10;97732.00;;;23.21;61.51
11314;BME280;5712;48.858;9.206;2022-09-13T08:56:42;97730.88;;;23.37;61.08
11314;BME280;5712;48.858;9.206;2022-09-13T08:59:23;97724.16;;;23.54;60.85
11314;BME280;5712;48.858;9.206;2022-09-13T09:01:56;97724.09;;;23.75;60.50
11314;BME280;5712;48.858;9.206;2022-09-13T09:04:37;97727.91;;;23.87;58.61
11314;BME280;5712;48.858;9.206;2022-09-13T09:07:09;97719.91;;;23.93;58.58
11314;BME280;5712;48.858;9.206;2022-09-13T09:09:40;97722.03;;;24.04;59.45
11314;BME280;5712;48.858;9.206;2022-09-13T09:12:16;97717.50;;;24.11;57.66
11314;BME280;5712;48.858;9.206;2022-09-13T09:14:56;97712.72;;;24.13;58.16
11314;BME280;5712;48.858;9.206;2022-09-13T09:17:26;97713.34;;;24.15;56.78
11314;BME280;5712;48.858;9.206;2022-09-13T09:20:01;97717.09;;;24.14;57.42
11314;BME280;5712;48.858;9.206;2022-09-13T09:22:32;97716.03;;;24.15;55.60
11314;BME280;5712;48.858;9.206;2022-09-13T09:24:59;97724.38;;;24.20;55.02
11314;BME280;5712;48.858;9.206;2022-09-13T09:27:30;97728.53;;;24.16;54.10
11314;BME280;5712;48.858;9.206;2022-09-13T09:29:57;97738.94;;;24.19;54.17
11314;BME280;5712;48.858;9.206;2022-09-13T09:32:45;97724.63;;;24.25;54.61
11314;BME280;5712;48.858;9.206;2022-09-13T09:35:20;97726.03;;;24.21;54.57
11314;BME280;5712;48.858;9.206;2022-09-13T09:40:39;97708.97;;;24.14;54.80
11314;BME280;5712;48.858;9.206;2022-09-13T09:43:15;97708.13;;;24.07;55.46
11314;BME280;5712;48.858;9.206;2022-09-13T09:45:43;97716.34;;;23.93;56.01
11314;BME280;5712;48.858;9.206;2022-09-13T09:48:14;97711.69;;;23.80;56.42
11314;BME280;5712;48.858;9.206;2022-09-13T09:50:47;97718.63;;;23.62;56.77
11314;BME280;5712;48.858;9.206;2022-09-13T09:53:18;97719.75;;;23.46;57.54
11314;BME280;5712;48.858;9.206;2022-09-13T09:55:51;97721.72;;;23.31;58.45
11314;BME280;5712;48.858;9.206;2022-09-13T09:58:35;97727.03;;;23.25;58.91
11314;BME280;5712;48.858;9.206;2022-09-13T10:01:03;97737.38;;;23.21;58.68
11314;BME280;5712;48.858;9.206;2022-09-13T10:03:32;97733.03;;;23.20;58.69
11314;BME280;5712;48.858;9.206;2022-09-13T10:06:04;97730.16;;;23.22;58.56
11314;BME280;5712;48.858;9.206;2022-09-13T10:08:34;97738.28;;;23.28;58.73
11314;BME280;5712;48.858;9.206;2022-09-13T10:11:02;97725.13;;;23.46;58.20
11314;BME280;5712;48.858;9.206;2022-09-13T10:13:31;97735.50;;;23.70;57.34
11314;BME280;5712;48.858;9.206;2022-09-13T10:16:00;97731.47;;;23.87;56.92
11314;BME280;5712;48.858;9.206;2022-09-13T10:18:28;97730.53;;;24.01;55.53
11314;BME280;5712;48.858;9.206;2022-09-13T10:21:00;97729.91;;;23.99;54.78
11314;BME280;5712;48.858;9.206;2022-09-13T10:23:28;97729.28;;;23.97;54.71
11314;BME280;5712;48.858;9.206;2022-09-13T10:25:59;97734.31;;;24.07;55.80
11314;BME280;5712;48.858;9.206;2022-09-13T10:28:29;97725.19;;;24.14;56.43
11314;BME280;5712;48.858;9.206;2022-09-13T10:31:00;97712.16;;;24.24;54.22
11314;BME280;5712;48.858;9.206;2022-09-13T10:33:30;97712.81;;;24.39;52.96
11314;BME280;5712;48.858;9.206;2022-09-13T10:36:00;97713.91;;;24.51;53.25
11314;BME280;5712;48.858;9.206;2022-09-13T10:38:31;97704.84;;;24.65;52.07
11314;BME280;5712;48.858;9.206;2022-09-13T10:41:01;97713.81;;;24.85;53.16
11314;BME280;5712;48.858;9.206;2022-09-13T10:43:30;97703.88;;;25.05;52.05
11314;BME280;5712;48.858;9.206;2022-09-13T10:46:00;97698.88;;;25.09;51.02
11314;BME280;5712;48.858;9.206;2022-09-13T10:48:28;97695.56;;;25.07;50.21
11314;BME280;5712;48.858;9.206;2022-09-13T10:51:03;97692.66;;;25.08;49.80
11314;BME280;5712;48.858;9.206;2022-09-13T10:53:35;97689.72;;;25.16;49.80
11314;BME280;5712;48.858;9.206;2022-09-13T10:56:02;97694.56;;;25.27;49.96
11314;BME280;5712;48.858;9.206;2022-09-13T10:58:29;97692.88;;;25.52;49.33
11314;BME280;5712;48.858;9.206;2022-09-13T11:04:32;97694.44;;;26.12;45.24
11314;BME280;5712;48.858;9.206;2022-09-13T11:07:15;97699.47;;;26.52;43.98
11314;BME280;5712;48.858;9.206;2022-09-13T11:09:49;97684.31;;;26.82;44.05
11314;BME280;5712;48.858;9.206;2022-09-13T11:12:26;97686.72;;;26.97;43.80
11314;BME280;5712;48.858;9.206;2022-09-13T11:15:01;97693.59;;;26.99;43.31
11314;BME280;5712;48.858;9.206;2022-09-13T11:17:44;97693.06;;;27.15;42.89
11314;BME280;5712;48.858;9.206;2022-09-13T11:20:23;97688.28;;;27.42;41.86
11314;BME280;5712;48.858;9.206;2022-09-13T11:23:07;97695.63;;;27.59;40.67
11314;BME280;5712;48.858;9.206;2022-09-13T11:25:50;97694.78;;;27.83;40.90
11314;BME280;5712;48.858;9.206;2022-09-13T11:28:28;97693.75;;;28.02;39.54
11314;BME280;5712;48.858;9.206;2022-09-13T11:31:10;97692.00;;;27.89;40.01
11314;BME280;5712;48.858;9.206;2022-09-13T11:33:49;97683.56;;;27.79;39.29
11314;BME280;5712;48.858;9.206;2022-09-13T11:36:42;97687.09;;;27.80;39.45
11314;BME280;5712;48.858;9.206;2022-09-13T11:39:19;97688.16;;;27.79;40.04
11314;BME280;5712;48.858;9.206;2022-09-13T11:41:55;97703.66;;;27.72;39.14
11314;BME280;5712;48.858;9.206;2022-09-13T11:44:48;97709.53;;;27.69;39.94
11314;BME280;5712;48.858;9.206;2022-09-13T11:47:24;97707.47;;;27.64;39.64
11314;BME280;5712;48.858;9.206;2022-09-13T11:50:05;97703.25;;;27.68;40.77
11314;BME280;5712;48.858;9.206;2022-09-13T11:52:51;97696.56;;;27.71;39.55
11314;BME280;5712;48.858;9.206;2022-09-13T11:55:25;97706.38;;;27.72;39.37
11314;BME280;5712;48.858;9.206;2022-09-13T11:57:56;97696.84;;;27.63;39.24
11314;BME280;5712;48.858;9.206;2022-09-13T12:00:26;97690.41;;;27.57;38.95
11314;BME280;5712;48.858;9.206;2022-09-13T12:03:00;97689.34;;;27.58;39.02
11314;BME280;5712;48.858;9.206;2022-09-13T12:05:31;97675.06;;;27.69;39.61
11314;BME280;5712;48.858;9.206;2022-09-13T12:08:04;97673.44;;;27.86;39.17
11314;BME280;5712;48.858;9.206;2022-09-13T12:10:47;97668.06;;;27.98;38.65
11314;BME280;5712;48.858;9.206;2022-09-13T12:13:19;97666.13;;;28.05;39.30
11314;BME280;5712;48.858;9.206;2022-09-13T12:15:50;97676.06;;;28.11;37.39
11314;BME280;5712;48.858;9.206;2022-09-13T12:18:19;97682.56;;;28.10;37.42
11314;BME280;5712;48.858;9.206;2022-09-13T12:20:51;97673.06;;;28.19;36.26
11314;BME280;5712;48.858;9.206;2022-09-13T12:23:23;97656.47;;;28.09;36.89
11314;BME280;5712;48.858;9.206;2022-09-13T12:25:57;97658.13;;;28.10;37.05
11314;BME280;5712;48.858;9.206;2022-09-13T12:28:29;97660.25;;;28.08;37.23
11314;BME280;5712;48.858;9.206;2022-09-13T12:31:01;97658.88;;;27.99;37.05
11314;BME280;5712;48.858;9.206;2022-09-13T12:33:29;97653.91;;;27.78;36.91
11314;BME280;5712;48.858;9.206;2022-09-13T12:36:17;97647.97;;;27.63;36.77
11314;BME280;5712;48.858;9.206;2022-09-13T12:39:28;97644.19;;;27.46;37.64
11314;BME280;5712;48.858;9.206;2022-09-13T12:42:17;97638.44;;;27.54;38.44
11314;BME280;5712;48.858;9.206;2022-09-13T12:45:07;97628.50;;;27.66;37.56
11314;BME280;5712;48.858;9.206;2022-09-13T12:47:56;97627.78;;;27.77;38.15
11314;BME280;5712;48.858;9.206;2022-09-13T12:50:44;97614.22;;;27.95;38.71
11314;BME280;5712;48.858;9.206;2022-09-13T12:53:41;97613.81;;;28.09;37.69
11314;BME280;5712;48.858;9.206;2022-09-13T12:56:31;97604.13;;;28.13;37.85
11314;BME280;5712;48.858;9.206;2022-09-13T12:59:17;97601.81;;;27.99;37.71
11314;BME280;5712;48.858;9.206;2022-09-13T13:01:48;97601.84;;;27.81;38.27
11314;BME280;5712;48.858;9.206;2022-09-13T13:04:18;97599.69;;;27.65;38.47
11314;BME280;5712;48.858;9.206;2022-09-13T13:06:50;97589.16;;;27.57;38.37
11314;BME280;5712;48.858;9.206;2022-09-13T13:09:27;97581.91;;;27.51;38.28
11314;BME280;5712;48.858;9.206;2022-09-13T13:11:57;97583.09;;;27.55;38.03
11314;BME280;5712;48.858;9.206;2022-09-13T13:14:28;97583.56;;;27.52;39.05
11314;BME280;5712;48.858;9.206;2022-09-13T13:19:55;97576.09;;;27.48;38.43
11314;BME280;5712;48.858;9.206;2022-09-13T13:22:47;97570.72;;;27.41;38.51
11314;BME280;5712;48.858;9.206;2022-09-13T13:25:31;97565.72;;;27.38;38.28
11314;BME280;5712;48.858;9.206;2022-09-13T13:27:59;97561.59;;;27.36;38.43
11314;BME280;5712;48.858;9.206;2022-09-13T13:30:49;97564.03;;;27.43;38.81
11314;BME280;5712;48.858;9.206;2022-09-13T13:33:20;97564.97;;;27.49;38.77
11314;BME280;5712;48.858;9.206;2022-09-13T13:35:48;97570.34;;;27.55;39.02
11314;BME280;5712;48.858;9.206;2022-09-13T13:38:45;97568.63;;;27.79;37.96
11314;BME280;5712;48.858;9.206;2022-09-13T13:41:37;97565.72;;;28.10;36.64
11314;BME280;5712;48.858;9.206;2022-09-13T13:47:52;97545.47;;;28.42;36.30